Time;durP1;ratioP1;P1;durP2;ratioP2;P2;SDS_P1;SDS_P2;PMS_P1;PMS_P2;Temp;Humidity;BMP_temperature;BMP_pressure;BME280_temperature;BME280_humidity;BME280_pressure;Samples;Min_cycle;Max_cycle;Signal;HPM_P1;HPM_P2
2022/01/18 00:00:09;;;;;;;6.57;4.30;;;;;;;7.18;61.29;99540.03;5070491;28;20196;-64
2022/01/18 00:02:37;;;;;;;3.60;3.40;;;;;;;7.04;62.41;99540.75;5071330;28;20667;-63
2022/01/18 00:05:05;;;;;;;3.80;3.40;;;;;;;6.96;62.87;99548.69;5071990;28;20191;-63
2022/01/18 00:07:32;;;;;;;3.80;3.50;;;;;;;6.96;63.09;99553.97;5071727;28;20194;-64
2022/01/18 00:09:58;;;;;;;3.50;3.30;;;;;;;6.94;63.32;99545.41;5071219;28;20234;-64
2022/01/18 00:13:06;;;;;;;3.33;3.13;;;;;;;6.82;64.09;99552.06;5070961;28;20198;-63
2022/01/18 00:15:37;;;;;;;4.00;3.70;;;;;;;6.85;64.39;99567.53;5075281;28;20514;-65
2022/01/18 00:18:14;;;;;;;3.70;3.50;;;;;;;6.89;64.25;99560.94;5074789;28;20179;-64
2022/01/18 00:23:28;;;;;;;3.40;3.20;;;;;;;6.81;64.86;99563.63;5074313;28;20205;-64
2022/01/18 00:25:57;;;;;;;4.50;3.53;;;;;;;6.69;64.44;99567.63;5075851;28;20192;-64
2022/01/18 00:28:27;;;;;;;3.40;3.20;;;;;;;6.67;64.51;99561.69;5075018;28;20193;-64
2022/01/18 00:31:27;;;;;;;2.90;2.70;;;;;;;6.68;64.42;99576.50;5074823;28;20191;-64
2022/01/18 00:34:01;;;;;;;3.13;2.93;;;;;;;6.71;64.74;99584.09;5074954;28;20227;-64
2022/01/18 00:36:36;;;;;;;2.67;2.20;;;;;;;6.77;64.35;99591.34;5074299;28;20276;-63
2022/01/18 00:39:05;;;;;;;3.17;2.77;;;;;;;6.92;64.13;99594.91;5073822;28;20195;-64
2022/01/18 00:41:31;;;;;;;2.70;2.47;;;;;;;6.83;64.69;99599.41;5074785;28;20257;-64
2022/01/18 00:43:59;;;;;;;3.53;2.83;;;;;;;6.94;64.71;99609.59;5072953;28;20194;-64
2022/01/18 00:46:27;;;;;;;2.70;2.60;;;;;;;6.89;65.13;99614.56;5074910;28;20195;-64
2022/01/18 00:48:55;;;;;;;2.93;2.83;;;;;;;6.90;64.77;99613.56;5074221;28;20299;-64
2022/01/18 00:51:23;;;;;;;2.70;2.50;;;;;;;6.87;65.19;99621.00;5074831;28;20191;-63
2022/01/18 00:53:50;;;;;;;2.67;2.57;;;;;;;6.96;65.24;99615.53;5074057;28;20270;-64
2022/01/18 00:56:22;;;;;;;2.80;2.60;;;;;;;7.00;64.99;99634.50;5074268;28;20199;-64
2022/01/18 00:58:50;;;;;;;2.40;2.30;;;;;;;6.89;65.62;99616.38;5073965;28;20187;-64
2022/01/18 01:01:20;;;;;;;3.70;2.90;;;;;;;6.85;65.95;99605.34;5074074;28;20195;-65
2022/01/18 01:03:48;;;;;;;2.00;1.90;;;;;;;6.56;66.77;99568.13;5074089;28;20275;-64
2022/01/18 01:06:15;;;;;;;5.00;2.90;;;;;;;6.67;66.92;99590.72;5074321;28;20206;-64
2022/01/18 01:08:42;;;;;;;2.60;2.37;;;;;;;6.66;67.30;99608.34;5073696;28;20786;-64
2022/01/18 01:11:10;;;;;;;2.20;2.10;;;;;;;6.67;67.50;99604.75;5073829;28;20732;-63
2022/01/18 01:13:42;;;;;;;2.60;2.50;;;;;;;6.75;67.51;99610.00;5073761;28;20310;-63
2022/01/18 01:16:23;;;;;;;2.53;2.33;;;;;;;6.67;67.71;99607.38;5073905;28;20643;-63
2022/01/18 01:19:07;;;;;;;2.30;2.20;;;;;;;6.69;67.43;99594.81;5073971;28;20206;-64
2022/01/18 01:35:38;;;;;;;2.90;2.70;;;;;;;6.72;66.80;99589.22;5047474;28;20199;-63
2022/01/18 01:43:47;;;;;;;2.80;2.60;;;;;;;6.73;66.88;99622.53;5053541;28;20690;-64
2022/01/18 01:46:14;;;;;;;2.30;2.03;;;;;;;6.71;66.45;99634.25;5053039;28;20186;-64
2022/01/18 01:48:44;;;;;;;2.10;2.00;;;;;;;6.81;66.49;99650.75;5053737;28;20201;-63
2022/01/18 01:51:12;;;;;;;2.23;2.13;;;;;;;6.86;66.95;99664.25;5053289;28;20567;-63
2022/01/18 01:53:39;;;;;;;6.97;2.30;;;;;;;6.95;69.25;99669.34;5053224;28;20282;-63
2022/01/18 01:56:07;;;;;;;1.90;1.67;;;;;;;6.94;69.32;99688.00;5052911;28;20193;-64
2022/01/18 01:58:33;;;;;;;3.80;2.07;;;;;;;6.90;69.53;99702.53;5053596;28;20649;-63
2022/01/18 02:01:05;;;;;;;2.00;1.90;;;;;;;6.94;69.28;99701.22;5052858;28;20656;-64
2022/01/18 02:03:32;;;;;;;1.97;1.60;;;;;;;6.77;70.02;99712.78;5053154;28;20283;-64
2022/01/18 02:05:59;;;;;;;1.30;1.30;;;;;;;6.74;70.94;99702.53;5053133;28;20195;-63
2022/01/18 02:08:28;;;;;;;2.10;2.00;;;;;;;6.72;70.95;99707.16;5052552;28;20567;-64
2022/01/18 02:10:55;;;;;;;1.97;1.87;;;;;;;6.65;71.56;99714.91;5053077;28;20623;-64
2022/01/18 02:13:22;;;;;;;2.80;2.00;;;;;;;6.45;72.47;99716.22;5052934;28;20279;-64
2022/01/18 02:16:11;;;;;;;2.30;2.10;;;;;;;6.31;72.88;99731.88;5052620;28;20257;-64
2022/01/18 02:24:09;;;;;;;1.93;1.83;;;;;;;6.14;73.22;99748.66;5053204;28;20187;-64
2022/01/18 02:26:36;;;;;;;2.03;1.83;;;;;;;5.99;74.32;99768.72;5052555;28;20250;-64
2022/01/18 02:29:05;;;;;;;2.30;2.20;;;;;;;6.03;74.27;99780.59;5053541;28;20467;-63
2022/01/18 02:31:32;;;;;;;2.10;2.00;;;;;;;5.95;69.88;99789.31;5052176;28;20192;-64
2022/01/18 02:34:03;;;;;;;1.80;1.70;;;;;;;5.90;69.08;99809.22;5052604;28;20239;-64
2022/01/18 02:36:32;;;;;;;1.70;1.70;;;;;;;5.93;67.21;99822.09;5052285;28;20670;-63
2022/01/18 02:38:58;;;;;;;2.03;1.93;;;;;;;5.97;69.26;99831.34;5052487;28;20192;-64
2022/01/18 02:41:30;;;;;;;2.60;2.50;;;;;;;5.90;70.53;99838.22;5052570;28;20251;-64
2022/01/18 02:43:57;;;;;;;2.60;2.40;;;;;;;5.85;71.55;99840.50;5052152;28;20219;-64
2022/01/18 02:46:24;;;;;;;2.70;2.50;;;;;;;5.89;72.74;99834.78;5052449;28;20192;-64
2022/01/18 02:48:51;;;;;;;2.10;2.00;;;;;;;5.72;74.82;99839.09;5052005;28;20609;-64
2022/01/18 02:51:18;;;;;;;2.13;2.03;;;;;;;5.48;76.67;99849.50;5052247;28;20196;-64
2022/01/18 02:54:00;;;;;;;2.97;2.83;;;;;;;5.43;78.28;99846.50;5051785;28;20583;-64
2022/01/18 02:56:28;;;;;;;2.73;2.53;;;;;;;5.33;78.87;99837.91;5052144;28;20191;-64
2022/01/18 02:59:03;;;;;;;3.73;2.70;;;;;;;5.15;78.41;99852.88;5051985;28;20200;-64
2022/01/18 03:04:14;;;;;;;2.37;2.27;;;;;;;5.07;75.82;99897.56;5052129;28;20263;-64
2022/01/18 03:06:41;;;;;;;2.50;2.40;;;;;;;5.11;74.92;99906.81;5051828;28;20619;-64
2022/01/18 03:09:09;;;;;;;3.43;2.63;;;;;;;5.28;70.29;99927.03;5052168;28;20189;-64
2022/01/18 03:11:36;;;;;;;2.40;2.30;;;;;;;5.27;66.28;99943.84;5052626;28;20265;-64
2022/01/18 03:14:03;;;;;;;1.90;1.90;;;;;;;5.25;62.12;99963.41;5051620;28;20712;-63
2022/01/18 03:16:30;;;;;;;2.50;2.40;;;;;;;5.25;57.31;99966.88;5051826;28;20254;-63
2022/01/18 03:18:57;;;;;;;1.93;1.83;;;;;;;5.13;51.96;99975.97;5052143;28;20247;-63
2022/01/18 03:21:24;;;;;;;1.50;1.50;;;;;;;5.12;49.77;99994.53;5052170;28;20198;-64
2022/01/18 03:23:54;;;;;;;1.63;1.53;;;;;;;5.15;46.41;100005.59;5051792;28;20200;-64
2022/01/18 03:26:31;;;;;;;1.90;1.80;;;;;;;5.00;44.49;100001.00;5051687;28;20694;-64
2022/01/18 03:28:57;;;;;;;1.83;1.63;;;;;;;5.00;44.76;100020.25;5052359;28;20242;-63
2022/01/18 03:31:24;;;;;;;1.70;1.60;;;;;;;4.94;43.79;100023.47;5051995;28;20205;-63
2022/01/18 03:33:50;;;;;;;2.30;2.10;;;;;;;4.93;43.48;100021.81;5051496;28;20235;-64
2022/01/18 03:36:17;;;;;;;1.90;1.80;;;;;;;4.78;43.27;100023.28;5051541;28;20192;-64
2022/01/18 03:38:44;;;;;;;4.63;1.43;;;;;;;4.83;42.86;100028.91;5051686;28;20337;-64
2022/01/18 03:41:10;;;;;;;1.70;1.70;;;;;;;4.69;43.25;100018.91;5051701;28;20192;-64
2022/01/18 03:43:41;;;;;;;1.70;1.60;;;;;;;4.66;43.61;100042.84;5051904;28;20197;-64
2022/01/18 03:46:10;;;;;;;2.13;2.03;;;;;;;4.63;43.11;100053.69;5051470;28;20192;-64
2022/01/18 03:48:38;;;;;;;1.83;1.80;;;;;;;4.72;42.58;100055.44;5052587;28;20196;-64
2022/01/18 03:51:07;;;;;;;3.90;2.50;;;;;;;4.56;42.85;100063.13;5055175;28;20227;-64
2022/01/18 03:53:34;;;;;;;1.90;1.80;;;;;;;4.65;43.13;100069.31;5055279;28;20692;-64
2022/01/18 03:56:01;;;;;;;2.60;2.17;;;;;;;4.56;43.06;100070.19;5055526;28;20258;-64
2022/01/18 03:58:27;;;;;;;1.90;1.80;;;;;;;4.61;43.18;100076.66;5055410;28;20254;-64
2022/01/18 04:00:56;;;;;;;2.50;2.30;;;;;;;4.53;43.09;100080.97;5056070;28;20200;-64
2022/01/18 04:03:22;;;;;;;1.90;1.80;;;;;;;4.56;42.93;100092.06;5055414;28;20625;-63
2022/01/18 04:05:52;;;;;;;1.80;1.70;;;;;;;4.35;44.04;100107.22;5055236;28;20196;-63
2022/01/18 04:08:18;;;;;;;2.00;1.90;;;;;;;4.29;44.39;100117.47;5055539;28;20254;-64
2022/01/18 04:10:45;;;;;;;1.90;1.80;;;;;;;4.37;44.56;100110.50;5054815;28;20189;-63
2022/01/18 04:13:12;;;;;;;2.60;2.40;;;;;;;4.26;45.10;100112.50;5055040;28;20447;-64
2022/01/18 04:15:39;;;;;;;2.30;2.20;;;;;;;4.04;45.49;100118.88;5056002;28;20601;-63
2022/01/18 04:18:17;;;;;;;1.87;1.87;;;;;;;4.00;45.75;100124.56;5055959;28;20196;-63
2022/01/18 04:29:00;;;;;;;2.00;1.90;;;;;;;3.93;44.98;100161.03;5054718;28;20195;-63
2022/01/18 04:31:27;;;;;;;3.17;2.17;;;;;;;3.97;44.79;100174.75;5055322;28;20188;-63
2022/01/18 04:33:56;;;;;;;2.43;2.20;;;;;;;3.98;45.11;100173.78;5054427;28;20281;-63
2022/01/18 04:36:24;;;;;;;1.60;1.60;;;;;;;3.97;45.18;100185.28;5055085;28;20200;-62
2022/01/18 04:38:50;;;;;;;2.30;2.20;;;;;;;3.93;45.02;100187.31;5054756;28;20435;-62
2022/01/18 04:41:24;;;;;;;2.53;2.10;;;;;;;3.79;45.17;100179.84;5054461;28;20618;-62
2022/01/18 04:44:06;;;;;;;2.17;2.07;;;;;;;3.73;45.63;100185.66;5054503;28;20185;-63
2022/01/18 04:49:18;;;;;;;1.70;1.60;;;;;;;3.63;45.66;100194.50;5054374;28;20407;-63
2022/01/18 04:51:46;;;;;;;2.20;1.70;;;;;;;3.54;45.33;100211.03;5054110;28;20496;-62
2022/01/18 04:54:15;;;;;;;2.10;2.00;;;;;;;3.53;46.04;100212.00;5054210;28;20256;-62
2022/01/18 04:59:26;;;;;;;3.17;2.70;;;;;;;3.46;45.46;100218.75;5054134;28;20199;-62
2022/01/18 05:01:53;;;;;;;2.80;2.60;;;;;;;3.48;45.36;100228.16;5053158;28;20942;-62
2022/01/18 05:04:21;;;;;;;3.53;2.50;;;;;;;3.54;45.37;100232.03;5054351;28;20202;-63
2022/01/18 05:06:47;;;;;;;2.80;2.37;;;;;;;3.39;45.03;100249.97;5053823;28;20942;-62
2022/01/18 05:09:14;;;;;;;4.37;2.20;;;;;;;3.43;45.63;100248.75;5053577;28;20254;-63
2022/01/18 05:11:50;;;;;;;6.27;2.80;;;;;;;3.46;45.88;100261.59;5053931;28;20787;-63
2022/01/18 05:14:26;;;;;;;5.13;2.20;;;;;;;3.41;45.62;100269.06;5053727;28;20219;-63
2022/01/18 05:16:59;;;;;;;2.03;1.80;;;;;;;3.30;46.67;100266.50;5054043;28;20245;-62
2022/01/18 05:19:39;;;;;;;2.23;2.03;;;;;;;3.28;46.64;100278.09;5054001;28;20188;-63
2022/01/18 05:24:50;;;;;;;2.63;2.43;;;;;;;3.29;46.33;100282.38;5053807;28;20410;-64
2022/01/18 05:27:16;;;;;;;2.30;2.20;;;;;;;3.21;46.33;100274.34;5053959;28;20489;-63
2022/01/18 05:29:43;;;;;;;4.07;2.20;;;;;;;3.18;46.38;100288.56;5053626;28;20438;-62
2022/01/18 05:32:10;;;;;;;2.70;2.50;;;;;;;3.12;47.70;100286.47;5053220;28;20431;-64
2022/01/18 05:34:38;;;;;;;8.60;3.50;;;;;;;3.09;47.54;100293.75;5053168;28;20555;-65
2022/01/18 05:37:05;;;;;;;2.40;2.20;;;;;;;3.07;46.02;100308.81;5053453;28;20508;-65
2022/01/18 05:39:32;;;;;;;2.93;2.30;;;;;;;3.08;46.07;100308.69;5053474;28;20508;-64
2022/01/18 05:41:59;;;;;;;4.30;2.70;;;;;;;3.11;45.88;100297.09;5053260;28;20517;-64
2022/01/18 05:44:25;;;;;;;8.73;3.07;;;;;;;3.13;45.30;100311.75;5053476;28;20500;-65
2022/01/18 05:46:52;;;;;;;3.60;2.67;;;;;;;3.35;43.90;100311.56;5053268;28;20439;-64
2022/01/18 05:49:19;;;;;;;5.90;3.20;;;;;;;3.31;43.13;100320.69;5054093;28;20507;-64
2022/01/18 05:51:47;;;;;;;3.27;3.00;;;;;;;3.39;43.91;100327.91;5052848;28;20512;-70
2022/01/18 05:54:14;;;;;;;3.33;2.63;;;;;;;3.51;42.87;100332.94;5052739;28;20533;-73
2022/01/18 05:56:40;;;;;;;3.57;3.27;;;;;;;3.56;42.32;100329.94;5053226;28;20439;-74
2022/01/18 05:59:09;;;;;;;6.23;1.73;;;;;;;3.49;41.64;100340.13;5052980;28;20266;-73
2022/01/18 06:01:46;;;;;;;3.03;2.50;;;;;;;3.61;42.04;100339.09;5053587;28;20494;-72
2022/01/18 06:06:49;;;;;;;3.07;2.20;;;;;;;3.65;42.40;100337.88;5053747;28;20445;-72
2022/01/18 06:07:02;;;;;;;2.77;2.60;;;;;;;3.68;42.09;100342.84;5053725;28;20185;-69
2022/01/18 06:09:29;;;;;;;2.50;2.30;;;;;;;3.78;41.46;100351.59;5053626;28;20439;-71
2022/01/18 06:11:56;;;;;;;8.40;2.13;;;;;;;3.91;41.33;100354.00;5052634;28;20993;-71
2022/01/18 06:14:22;;;;;;;3.00;2.70;;;;;;;4.02;42.12;100362.63;5052845;28;20478;-71
2022/01/18 06:16:49;;;;;;;2.90;2.70;;;;;;;3.99;42.85;100376.03;5052269;28;20193;-71
2022/01/18 06:19:16;;;;;;;8.63;3.40;;;;;;;4.10;43.45;100375.94;5052617;28;20238;-72
2022/01/18 06:21:43;;;;;;;3.10;2.90;;;;;;;4.13;43.52;100370.38;5052224;28;20246;-69
2022/01/18 06:24:11;;;;;;;3.43;3.23;;;;;;;4.18;44.06;100365.59;5052656;28;20571;-69
2022/01/18 06:26:39;;;;;;;10.97;3.53;;;;;;;4.13;44.08;100351.19;5052387;28;20196;-69
2022/01/18 06:29:05;;;;;;;3.93;3.60;;;;;;;4.28;44.58;100345.38;5052541;28;20885;-69
2022/01/18 06:31:32;;;;;;;5.33;4.10;;;;;;;4.31;44.20;100350.38;5052708;28;20497;-69
2022/01/18 06:33:59;;;;;;;3.60;3.40;;;;;;;4.56;43.37;100365.66;5059826;28;20520;-71
2022/01/18 06:36:26;;;;;;;6.30;3.40;;;;;;;4.66;43.24;100349.88;5065805;28;20447;-69
2022/01/18 06:38:53;;;;;;;3.70;3.50;;;;;;;4.68;43.66;100343.50;5052556;28;20439;-68
2022/01/18 06:41:21;;;;;;;5.33;3.50;;;;;;;4.76;47.01;100345.44;5063389;28;20745;-68
2022/01/18 06:43:47;;;;;;;18.17;4.77;;;;;;;4.79;45.07;100340.72;5072140;28;20259;-69
2022/01/18 06:46:14;;;;;;;4.57;3.43;;;;;;;4.65;45.61;100341.16;5072249;28;20199;-69
2022/01/18 06:48:44;;;;;;;4.50;4.10;;;;;;;4.71;45.85;100343.22;5070733;28;20191;-68
2022/01/18 06:51:11;;;;;;;5.83;4.37;;;;;;;4.77;45.72;100355.00;5068373;28;20204;-69
2022/01/18 06:53:44;;;;;;;4.80;4.20;;;;;;;4.92;46.23;100359.72;5071809;28;20732;-70
2022/01/18 06:56:11;;;;;;;5.53;5.00;;;;;;;5.36;45.52;100366.19;5072405;28;20211;-72
2022/01/18 06:58:39;;;;;;;6.30;5.63;;;;;;;5.25;45.34;100375.06;5072149;28;20187;-73
2022/01/18 07:01:06;;;;;;;6.27;4.60;;;;;;;5.06;45.12;100375.09;5071223;28;20200;-69
2022/01/18 07:03:33;;;;;;;2.80;2.70;;;;;;;5.25;44.63;100390.88;5069989;28;20188;-69
2022/01/18 07:05:59;;;;;;;10.07;3.07;;;;;;;5.23;44.65;100394.63;5071660;28;20249;-68
2022/01/18 07:08:26;;;;;;;5.10;2.50;;;;;;;5.33;43.29;100398.91;5071936;28;20250;-69
2022/01/18 07:10:53;;;;;;;5.13;3.60;;;;;;;5.40;43.94;100383.38;5071592;28;20613;-68
2022/01/18 07:13:19;;;;;;;7.13;5.07;;;;;;;5.53;43.00;100384.72;5070735;28;20733;-67
2022/01/18 07:15:47;;;;;;;3.90;3.60;;;;;;;5.59;43.02;100394.69;5071843;28;20281;-67
2022/01/18 07:18:14;;;;;;;3.00;2.80;;;;;;;5.43;43.29;100388.34;5071514;28;20746;-68
2022/01/18 07:20:41;;;;;;;11.37;4.60;;;;;;;5.56;43.43;100400.22;5071549;28;20309;-68
2022/01/18 07:23:11;;;;;;;4.30;4.00;;;;;;;5.60;42.93;100406.06;5069740;28;20656;-68
2022/01/18 07:25:42;;;;;;;7.60;3.40;;;;;;;5.46;43.40;100409.97;5073932;28;20190;-69
2022/01/18 07:28:09;;;;;;;5.97;3.30;;;;;;;5.86;42.82;100411.56;5073833;28;20184;-69
2022/01/18 07:30:35;;;;;;;4.63;3.30;;;;;;;5.92;42.46;100405.72;5073965;28;20191;-68
2022/01/18 07:33:04;;;;;;;4.23;3.23;;;;;;;5.92;42.51;100411.81;5073674;28;20231;-68
2022/01/18 07:35:32;;;;;;;3.63;3.33;;;;;;;6.25;42.12;100434.19;5073501;28;20216;-69
2022/01/18 07:38:00;;;;;;;7.93;6.03;;;;;;;6.46;41.41;100445.34;5074633;28;20282;-69
2022/01/18 07:40:27;;;;;;;6.40;5.33;;;;;;;6.72;40.91;100455.06;5075106;28;20195;-70
2022/01/18 07:42:54;;;;;;;6.27;5.63;;;;;;;6.45;40.74;100456.88;5075770;28;20204;-67
2022/01/18 07:45:21;;;;;;;3.90;3.60;;;;;;;6.39;41.08;100441.63;5075564;28;20204;-68
2022/01/18 07:47:48;;;;;;;4.87;3.10;;;;;;;6.44;40.88;100449.91;5075558;28;20195;-69
2022/01/18 07:50:16;;;;;;;6.53;3.67;;;;;;;6.69;40.56;100454.53;5075209;28;20633;-71
2022/01/18 07:52:43;;;;;;;3.30;3.10;;;;;;;7.04;40.57;100449.28;5075129;28;20249;-69
2022/01/18 07:55:10;;;;;;;11.70;3.43;;;;;;;6.91;40.25;100465.50;5075563;28;20269;-69
2022/01/18 07:57:41;;;;;;;6.07;3.43;;;;;;;7.31;40.25;100462.44;5074810;28;20188;-69
2022/01/18 08:00:09;;;;;;;5.90;3.37;;;;;;;7.56;38.98;100466.94;5075334;28;20185;-68
2022/01/18 08:02:37;;;;;;;9.87;3.70;;;;;;;7.49;38.45;100460.59;5074994;28;20200;-69
2022/01/18 08:05:04;;;;;;;3.93;2.70;;;;;;;7.77;38.81;100451.56;5074893;28;20198;-69
2022/01/18 08:07:32;;;;;;;5.63;3.60;;;;;;;7.28;39.55;100465.38;5071520;28;20252;-67
2022/01/18 08:09:59;;;;;;;4.80;3.10;;;;;;;6.99;38.75;100477.97;5065030;28;20188;-66
2022/01/18 08:12:26;;;;;;;5.60;3.20;;;;;;;6.81;40.16;100485.03;5065599;28;20262;-69
2022/01/18 08:14:59;;;;;;;6.70;3.70;;;;;;;6.99;39.81;100491.16;5063370;28;20691;-67
2022/01/18 08:17:26;;;;;;;5.30;3.70;;;;;;;7.68;39.16;100500.09;5063420;28;20700;-67
2022/01/18 08:19:53;;;;;;;10.60;3.43;;;;;;;7.91;38.90;100498.59;5064432;28;20192;-69
2022/01/18 08:22:19;;;;;;;4.00;3.23;;;;;;;8.32;37.10;100497.91;5065498;28;20246;-67
2022/01/18 08:24:48;;;;;;;7.30;3.87;;;;;;;8.26;38.46;100488.78;5072271;28;20203;-69
2022/01/18 08:27:14;;;;;;;4.60;2.90;;;;;;;8.59;36.18;100500.38;5074847;28;20192;-69
2022/01/18 08:29:41;;;;;;;3.80;2.70;;;;;;;7.77;37.45;100485.94;5074854;28;20722;-71
2022/01/18 08:32:08;;;;;;;11.27;3.47;;;;;;;8.07;36.78;100510.13;5074656;28;20196;-71
2022/01/18 08:34:34;;;;;;;2.43;2.23;;;;;;;8.32;36.44;100505.84;5071870;28;20224;-70
2022/01/18 08:37:01;;;;;;;3.07;2.70;;;;;;;8.04;37.49;100504.34;5074413;28;20188;-69
2022/01/18 08:39:28;;;;;;;5.67;3.07;;;;;;;8.33;35.97;100500.41;5072791;28;20373;-67
2022/01/18 08:41:56;;;;;;;6.40;4.10;;;;;;;8.47;35.51;100517.53;5073542;28;20281;-67
2022/01/18 08:44:23;;;;;;;3.20;2.87;;;;;;;8.45;35.29;100520.31;5073972;28;20192;-67
2022/01/18 08:46:50;;;;;;;9.30;3.93;;;;;;;8.78;35.70;100521.31;5072745;28;20192;-68
2022/01/18 08:49:16;;;;;;;3.77;2.90;;;;;;;9.14;37.83;100528.03;5072607;28;20224;-67
2022/01/18 08:51:43;;;;;;;3.73;3.43;;;;;;;9.46;34.93;100528.97;5073732;28;20245;-67
2022/01/18 08:54:10;;;;;;;3.20;3.00;;;;;;;8.74;35.02;100525.28;5073297;28;20570;-67
2022/01/18 08:56:36;;;;;;;2.40;2.20;;;;;;;8.80;34.39;100537.88;5073125;28;20223;-69
2022/01/18 08:59:04;;;;;;;5.07;2.57;;;;;;;9.34;33.72;100545.34;5073370;28;20199;-70
2022/01/18 09:01:31;;;;;;;3.73;3.40;;;;;;;9.08;33.47;100536.66;5073467;28;20192;-67
2022/01/18 09:03:58;;;;;;;5.07;3.37;;;;;;;8.74;34.82;100538.53;5073610;28;20265;-68
2022/01/18 09:06:25;;;;;;;5.37;3.30;;;;;;;8.41;34.62;100528.75;5073847;28;20200;-67
2022/01/18 09:08:56;;;;;;;3.60;3.30;;;;;;;8.56;34.85;100530.66;5074039;28;20261;-66
2022/01/18 09:11:24;;;;;;;4.20;3.80;;;;;;;8.49;36.75;100531.44;5056198;28;20687;-66
2022/01/18 09:13:52;;;;;;;5.33;3.57;;;;;;;8.50;34.69;100522.50;5053483;28;20188;-70
2022/01/18 09:16:20;;;;;;;4.90;3.43;;;;;;;8.88;34.50;100517.56;5053627;28;20277;-71
2022/01/18 09:18:47;;;;;;;4.20;3.90;;;;;;;8.59;34.61;100526.84;5052495;28;20246;-67
2022/01/18 09:21:14;;;;;;;3.70;3.40;;;;;;;8.76;35.45;100524.13;5054718;28;20242;-71
2022/01/18 09:23:42;;;;;;;3.67;3.37;;;;;;;9.04;36.80;100516.75;5052564;28;20761;-67
2022/01/18 09:26:08;;;;;;;6.30;5.67;;;;;;;9.34;34.52;100529.41;5052688;28;20253;-68
2022/01/18 09:28:35;;;;;;;3.70;3.40;;;;;;;9.04;34.47;100511.47;5053604;28;20729;-68
2022/01/18 09:31:03;;;;;;;3.50;3.20;;;;;;;8.88;34.82;100528.16;5053309;28;20200;-68
2022/01/18 09:33:31;;;;;;;4.07;3.67;;;;;;;8.16;35.29;100524.22;5062924;28;20224;-68
2022/01/18 09:35:58;;;;;;;9.70;3.60;;;;;;;8.22;35.69;100518.38;5061846;28;20209;-67
2022/01/18 09:38:24;;;;;;;6.40;3.43;;;;;;;8.14;35.29;100521.78;5063093;28;20195;-67
2022/01/18 09:40:51;;;;;;;7.03;2.50;;;;;;;8.28;35.10;100517.72;5063435;28;20188;-67
2022/01/18 09:43:18;;;;;;;3.43;3.13;;;;;;;8.65;34.99;100515.59;5064069;28;20273;-69
2022/01/18 09:45:46;;;;;;;3.60;2.77;;;;;;;8.56;34.34;100505.97;5061479;28;20193;-67
2022/01/18 09:48:14;;;;;;;8.70;2.80;;;;;;;9.09;34.32;100525.06;5061886;28;20241;-68
2022/01/18 09:50:45;;;;;;;4.80;2.30;;;;;;;9.08;33.55;100528.72;5061673;28;20256;-68
2022/01/18 09:53:12;;;;;;;2.60;2.27;;;;;;;9.14;34.22;100502.38;5059660;28;20258;-69
2022/01/18 09:55:41;;;;;;;3.97;3.57;;;;;;;9.12;33.93;100503.53;5055457;28;20219;-68
2022/01/18 09:58:08;;;;;;;8.60;4.23;;;;;;;9.33;34.45;100501.25;5063626;28;20193;-69
2022/01/18 10:00:37;;;;;;;3.97;2.50;;;;;;;9.15;36.21;100492.63;5061485;28;20189;-69
2022/01/18 10:03:08;;;;;;;4.50;2.60;;;;;;;9.41;33.69;100503.91;5064203;28;20254;-68
2022/01/18 10:05:35;;;;;;;7.37;2.73;;;;;;;8.92;33.62;100499.50;5061978;28;20190;-68
2022/01/18 10:08:05;;;;;;;4.37;3.83;;;;;;;8.38;36.11;100484.06;5061986;28;20581;-68
2022/01/18 10:10:37;;;;;;;4.93;3.03;;;;;;;8.62;38.04;100484.16;5064890;28;20245;-66
2022/01/18 10:13:04;;;;;;;3.37;3.07;;;;;;;9.35;42.06;100472.78;5062856;28;20192;-71
2022/01/18 10:15:31;;;;;;;6.90;4.43;;;;;;;9.30;35.32;100475.06;5061208;28;20270;-72
2022/01/18 10:18:05;;;;;;;4.53;2.47;;;;;;;9.41;36.55;100461.50;5069666;28;20260;-71
2022/01/18 10:20:32;;;;;;;3.20;3.00;;;;;;;9.04;33.76;100463.75;5072200;28;20233;-67
2022/01/18 10:23:00;;;;;;;6.60;3.67;;;;;;;9.13;33.25;100462.78;5072533;28;20195;-67
2022/01/18 10:25:29;;;;;;;6.97;3.70;;;;;;;8.81;34.23;100457.41;5072214;28;20210;-67
2022/01/18 10:27:57;;;;;;;10.57;3.20;;;;;;;8.89;33.40;100455.63;5072870;28;20192;-66
2022/01/18 10:30:35;;;;;;;9.90;3.17;;;;;;;9.22;31.98;100451.19;5072240;28;20196;-72
2022/01/18 10:33:10;;;;;;;9.50;3.67;;;;;;;8.45;33.99;100440.88;5072263;28;20227;-69
2022/01/18 10:35:37;;;;;;;15.47;11.10;;;;;;;8.46;36.11;100439.91;5071589;28;20688;-69
2022/01/18 10:38:17;;;;;;;18.57;6.67;;;;;;;8.16;38.05;100428.97;5072610;28;20192;-73
2022/01/18 10:40:45;;;;;;;6.00;2.90;;;;;;;7.91;35.56;100429.81;5062997;28;20640;-74
2022/01/18 10:43:29;;;;;;;5.03;3.30;;;;;;;7.93;36.29;100427.88;5052197;28;20265;-72
2022/01/18 10:46:11;;;;;;;4.73;4.37;;;;;;;8.20;36.76;100425.00;5052020;28;20188;-72
2022/01/18 10:48:46;;;;;;;3.57;3.37;;;;;;;7.96;37.04;100423.09;5052168;28;20192;-73
2022/01/18 10:51:26;;;;;;;4.90;4.50;;;;;;;8.02;36.14;100425.13;5052417;28;20216;-74
2022/01/18 10:53:57;;;;;;;2.53;2.33;;;;;;;8.07;36.35;100429.91;5052134;28;20216;-72
2022/01/18 10:56:25;;;;;;;4.93;3.87;;;;;;;8.08;37.57;100415.72;5051992;28;20594;-71
2022/01/18 10:58:55;;;;;;;2.90;2.70;;;;;;;8.21;34.55;100424.09;5052465;28;20196;-70
2022/01/18 11:01:22;;;;;;;3.50;3.20;;;;;;;8.49;34.15;100420.25;5052023;28;20231;-70
2022/01/18 11:04:12;;;;;;;3.57;2.83;;;;;;;8.48;34.30;100423.84;5066585;28;20253;-70
2022/01/18 11:06:40;;;;;;;3.50;3.20;;;;;;;8.66;34.10;100421.94;5067459;28;20201;-71
2022/01/18 11:09:13;;;;;;;3.20;3.00;;;;;;;8.44;33.55;100430.47;5071626;28;20196;-69
2022/01/18 11:11:45;;;;;;;2.83;2.63;;;;;;;8.41;32.85;100425.50;5071323;28;20183;-67
2022/01/18 11:14:16;;;;;;;4.30;2.77;;;;;;;8.72;33.31;100430.06;5071258;28;20192;-70
2022/01/18 11:16:44;;;;;;;4.83;4.03;;;;;;;8.82;33.22;100424.66;5071627;28;20208;-70
2022/01/18 11:19:29;;;;;;;5.97;4.13;;;;;;;8.45;35.70;100411.78;5071824;28;20203;-68
2022/01/18 11:21:57;;;;;;;4.27;2.93;;;;;;;8.36;36.42;100409.25;5071968;28;20210;-69
2022/01/18 11:24:25;;;;;;;6.27;3.90;;;;;;;8.57;36.59;100420.25;5065753;28;20733;-68
2022/01/18 11:26:53;;;;;;;11.10;4.00;;;;;;;8.40;36.19;100414.06;5068215;28;20282;-69
2022/01/18 11:29:21;;;;;;;9.50;3.93;;;;;;;8.45;35.87;100424.19;5071141;28;20630;-68
2022/01/18 11:31:48;;;;;;;3.23;3.03;;;;;;;8.36;36.91;100417.19;5051223;28;20703;-68
2022/01/18 11:34:28;;;;;;;5.43;4.23;;;;;;;8.21;36.88;100427.53;5051229;28;20711;-69
2022/01/18 11:37:00;;;;;;;3.43;3.23;;;;;;;8.16;37.18;100431.63;5051503;28;20281;-69
2022/01/18 11:39:31;;;;;;;5.90;3.83;;;;;;;7.86;37.18;100443.53;5051316;28;20184;-69
2022/01/18 11:42:09;;;;;;;4.17;3.73;;;;;;;7.97;36.96;100434.50;5070740;28;20192;-69
2022/01/18 11:44:36;;;;;;;3.23;2.97;;;;;;;8.04;35.73;100433.72;5071297;28;20184;-69
2022/01/18 11:47:05;;;;;;;13.50;3.37;;;;;;;8.10;35.41;100432.25;5071077;28;20200;-69
2022/01/18 11:49:33;;;;;;;2.80;2.60;;;;;;;8.35;34.59;100439.34;5071194;28;20578;-68
2022/01/18 11:52:04;;;;;;;3.20;2.30;;;;;;;8.34;35.51;100432.41;5066762;28;20707;-68
2022/01/18 11:54:41;;;;;;;2.87;2.77;;;;;;;8.48;34.92;100429.16;5071221;28;20570;-68
2022/01/18 11:57:37;;;;;;;18.43;3.60;;;;;;;8.69;34.25;100434.84;5070955;28;20226;-69
2022/01/18 12:00:24;;;;;;;3.80;3.50;;;;;;;8.71;34.19;100432.88;5071492;28;20195;-69
2022/01/18 12:02:55;;;;;;;3.30;3.00;;;;;;;8.77;33.72;100424.28;5071207;28;20204;-69
2022/01/18 12:05:25;;;;;;;13.43;3.43;;;;;;;8.78;34.38;100423.31;5071264;28;20245;-69
2022/01/18 12:08:00;;;;;;;14.63;3.00;;;;;;;8.74;33.97;100432.56;5072015;28;20206;-68
2022/01/18 12:10:47;;;;;;;3.60;2.70;;;;;;;8.81;33.93;100425.59;5073265;28;20199;-68
2022/01/18 12:13:47;;;;;;;4.50;4.10;;;;;;;8.80;34.60;100421.31;5074828;28;20191;-68
2022/01/18 12:16:29;;;;;;;5.47;3.30;;;;;;;8.89;34.70;100422.97;5073070;28;20224;-68
2022/01/18 12:19:02;;;;;;;6.70;2.70;;;;;;;9.11;35.22;100432.97;5075264;28;20218;-69
2022/01/18 12:21:30;;;;;;;4.20;3.53;;;;;;;9.00;34.30;100420.03;5075405;28;20277;-67
2022/01/18 12:23:58;;;;;;;3.03;2.83;;;;;;;8.83;34.54;100428.94;5075020;28;20195;-68
2022/01/18 12:26:37;;;;;;;2.80;2.63;;;;;;;9.00;34.46;100427.97;5074891;28;20253;-69
2022/01/18 12:35:00;;;;;;;4.37;3.10;;;;;;;9.20;32.75;100416.88;5074628;28;20227;-71
2022/01/18 12:37:48;;;;;;;5.47;2.40;;;;;;;9.15;32.45;100413.09;5074508;28;20203;-69